createdAt,value
2023-04-27T00:00:33.622Z,2.30
2023-04-27T00:03:05.802Z,2.43
2023-04-27T00:05:39.514Z,2.97
2023-04-27T00:08:07.139Z,5.10
2023-04-27T00:11:11.489Z,6.20
2023-04-27T00:13:38.322Z,6.13
2023-04-27T00:16:05.419Z,3.63
2023-04-27T00:18:32.982Z,5.20
2023-04-27T00:21:00.101Z,2.13
2023-04-27T00:23:27.214Z,5.13
2023-04-27T00:25:54.053Z,5.00
2023-04-27T00:28:20.861Z,2.23
2023-04-27T00:30:48.840Z,5.10
2023-04-27T00:33:17.033Z,2.27
2023-04-27T00:35:43.804Z,5.07
2023-04-27T00:38:11.084Z,5.00
2023-04-27T00:40:57.211Z,4.30
2023-04-27T00:43:24.032Z,4.03
2023-04-27T00:45:50.925Z,1.50
2023-04-27T00:48:17.815Z,1.37
2023-04-27T00:50:44.703Z,2.47
2023-04-27T00:53:12.786Z,6.20
2023-04-27T00:55:39.578Z,7.73
2023-04-27T00:58:06.664Z,3.33
2023-04-27T01:00:36.162Z,6.00
2023-04-27T01:03:04.750Z,2.30
2023-04-27T01:05:32.668Z,6.20
2023-04-27T01:07:59.677Z,1.90
2023-04-27T01:10:27.540Z,6.80
2023-04-27T01:12:54.479Z,3.80
2023-04-27T01:15:21.449Z,1.60
2023-04-27T01:20:33.106Z,4.03
2023-04-27T01:23:00.412Z,3.60
2023-04-27T01:25:27.178Z,3.57
2023-04-27T01:27:54.529Z,4.37
2023-04-27T01:30:22.713Z,4.80
2023-04-27T01:32:50.217Z,5.10
2023-04-27T01:35:19.298Z,2.30
2023-04-27T01:37:46.142Z,3.80
2023-04-27T01:40:13.676Z,2.33
2023-04-27T01:42:40.875Z,3.30
2023-04-27T01:45:09.706Z,9.37
2023-04-27T01:47:37.746Z,2.73
2023-04-27T01:50:05.052Z,3.83
2023-04-27T01:52:31.953Z,5.60
2023-04-27T01:55:17.354Z,2.63
2023-04-27T01:57:44.141Z,2.10
2023-04-27T02:00:12.339Z,2.87
2023-04-27T02:02:48.056Z,2.57
2023-04-27T02:05:14.968Z,2.20
2023-04-27T02:07:41.752Z,1.80
2023-04-27T02:10:08.931Z,1.63
2023-04-27T02:12:35.764Z,3.10
2023-04-27T02:15:03.770Z,2.90
2023-04-27T02:17:31.379Z,1.50
2023-04-27T02:19:58.246Z,3.13
2023-04-27T02:22:25.054Z,6.07
2023-04-27T02:24:51.785Z,3.07
2023-04-27T02:27:18.788Z,3.07
2023-04-27T02:29:46.200Z,3.90
2023-04-27T02:32:13.386Z,6.40
2023-04-27T02:34:40.155Z,1.67
2023-04-27T02:37:07.000Z,3.37
2023-04-27T02:39:33.772Z,2.40
2023-04-27T02:42:01.534Z,5.80
2023-04-27T02:44:28.312Z,2.80
2023-04-27T02:46:55.141Z,1.77
2023-04-27T02:49:22.218Z,3.77
2023-04-27T02:51:50.043Z,2.07
2023-04-27T02:54:35.311Z,2.90
2023-04-27T02:57:02.329Z,3.77
2023-04-27T02:59:29.194Z,3.00
2023-04-27T03:01:56.187Z,1.20
2023-04-27T03:04:23.661Z,3.80
2023-04-27T03:06:51.011Z,2.40
2023-04-27T03:09:17.833Z,4.60
2023-04-27T03:11:44.586Z,4.00
2023-04-27T03:14:12.810Z,5.27
2023-04-27T03:16:39.755Z,4.60
2023-04-27T03:19:07.267Z,2.07
2023-04-27T03:21:34.049Z,1.60
2023-04-27T03:24:01.057Z,2.83
2023-04-27T03:26:27.837Z,5.10
2023-04-27T03:28:54.626Z,1.77
2023-04-27T03:31:21.748Z,4.70
2023-04-27T03:33:48.627Z,4.83
2023-04-27T03:36:15.501Z,4.37
2023-04-27T03:38:42.336Z,1.73
2023-04-27T03:41:09.262Z,4.27
2023-04-27T03:43:36.357Z,2.33
2023-04-27T03:46:22.001Z,2.97
2023-04-27T03:48:49.329Z,4.83
2023-04-27T03:51:16.847Z,4.23
2023-04-27T03:53:45.612Z,2.20
2023-04-27T03:56:12.381Z,2.50
2023-04-27T03:58:39.368Z,2.63
2023-04-27T04:01:26.388Z,3.30
2023-04-27T04:03:54.048Z,7.67
2023-04-27T04:06:21.114Z,2.73
2023-04-27T04:08:47.998Z,3.23
2023-04-27T04:11:14.852Z,1.50
2023-04-27T04:13:42.231Z,3.70
2023-04-27T04:16:09.828Z,4.93
2023-04-27T04:18:37.066Z,2.13
2023-04-27T04:21:05.234Z,2.97
2023-04-27T04:23:34.022Z,3.63
2023-04-27T04:26:02.222Z,2.97
2023-04-27T04:28:33.467Z,2.57
2023-04-27T04:31:03.481Z,4.30
2023-04-27T04:33:31.249Z,3.67
2023-04-27T04:35:58.796Z,6.37
2023-04-27T04:38:25.591Z,2.93
2023-04-27T04:41:10.934Z,2.93
2023-04-27T04:46:22.414Z,2.67
2023-04-27T04:48:52.695Z,1.03
2023-04-27T04:51:21.018Z,4.87
2023-04-27T04:53:47.869Z,1.30
2023-04-27T04:56:17.117Z,3.50
2023-04-27T04:58:43.955Z,2.47
2023-04-27T05:01:11.012Z,2.43
2023-04-27T05:03:37.987Z,2.33
2023-04-27T05:06:05.327Z,3.23
2023-04-27T05:08:32.055Z,6.43
2023-04-27T05:10:59.004Z,7.33
2023-04-27T05:13:25.908Z,2.00
2023-04-27T05:16:11.637Z,2.07
2023-04-27T05:18:38.530Z,2.93
2023-04-27T05:21:05.539Z,2.93
2023-04-27T05:23:32.329Z,7.23
2023-04-27T05:25:59.170Z,3.30
2023-04-27T05:28:26.283Z,5.60
2023-04-27T05:30:53.024Z,3.27
2023-04-27T05:33:20.731Z,2.70
2023-04-27T05:35:47.538Z,4.07
2023-04-27T05:38:17.479Z,6.83
2023-04-27T05:40:44.317Z,3.97
2023-04-27T05:43:11.111Z,4.07
2023-04-27T05:45:59.648Z,3.10
2023-04-27T05:48:45.252Z,3.87
2023-04-27T05:51:12.089Z,4.30
2023-04-27T05:53:39.101Z,6.43
2023-04-27T05:56:08.965Z,2.50
2023-04-27T05:58:35.739Z,5.60
2023-04-27T06:01:03.861Z,2.37
2023-04-27T06:03:31.530Z,4.33
2023-04-27T06:06:00.433Z,1.87
2023-04-27T06:08:28.004Z,2.87
2023-04-27T06:10:54.830Z,2.60
2023-04-27T06:13:21.747Z,5.73
2023-04-27T06:15:48.749Z,4.50
2023-04-27T06:18:15.670Z,2.63
2023-04-27T06:21:02.048Z,4.70
2023-04-27T06:23:29.274Z,5.33
2023-04-27T06:25:56.270Z,4.57
2023-04-27T06:28:23.216Z,5.73
2023-04-27T06:30:50.042Z,5.80
2023-04-27T06:33:17.470Z,3.97
2023-04-27T06:35:47.434Z,3.57
2023-04-27T06:38:14.558Z,3.87
2023-04-27T06:40:41.653Z,2.07
2023-04-27T06:43:08.617Z,4.57
2023-04-27T06:45:36.192Z,2.73
2023-04-27T06:48:03.382Z,5.03
2023-04-27T06:50:30.938Z,5.93
2023-04-27T06:52:57.751Z,4.17
2023-04-27T06:55:45.591Z,4.60
2023-04-27T06:58:13.744Z,10.63
2023-04-27T07:00:40.766Z,4.10
2023-04-27T07:03:07.701Z,3.27
2023-04-27T07:05:34.623Z,5.90
2023-04-27T07:08:04.564Z,3.40
2023-04-27T07:10:32.918Z,6.33
2023-04-27T07:12:59.749Z,2.13
2023-04-27T07:15:26.807Z,3.30
2023-04-27T07:17:56.981Z,6.27
2023-04-27T07:20:24.110Z,6.77
2023-04-27T07:25:35.728Z,4.10
2023-04-27T07:28:02.514Z,4.80
2023-04-27T07:30:31.005Z,6.10
2023-04-27T07:32:58.119Z,4.17
2023-04-27T07:35:24.957Z,6.40
2023-04-27T07:37:52.194Z,6.07
2023-04-27T07:40:19.071Z,6.23
2023-04-27T07:42:48.745Z,5.77
2023-04-27T07:45:17.534Z,6.97
2023-04-27T07:47:44.353Z,9.97
2023-04-27T07:50:11.329Z,2.30
2023-04-27T07:52:38.105Z,4.73
2023-04-27T07:55:05.217Z,4.57
2023-04-27T07:57:32.024Z,3.53
2023-04-27T07:59:58.783Z,5.23
2023-04-27T08:02:30.606Z,4.03
2023-04-27T08:04:57.901Z,4.37
2023-04-27T08:07:25.102Z,5.50
2023-04-27T08:09:52.724Z,5.27
2023-04-27T08:12:19.750Z,7.40
2023-04-27T08:14:47.292Z,7.70
2023-04-27T08:17:14.162Z,3.03
2023-04-27T08:19:41.539Z,4.20
2023-04-27T08:22:08.617Z,5.73
2023-04-27T08:24:36.388Z,11.67
2023-04-27T08:27:06.094Z,3.67
2023-04-27T08:29:33.327Z,5.83
2023-04-27T08:32:02.326Z,5.50
2023-04-27T08:34:29.559Z,3.80
2023-04-27T08:36:57.143Z,6.00
2023-04-27T08:39:24.788Z,3.10
2023-04-27T08:41:51.752Z,2.60
2023-04-27T08:44:18.866Z,6.60
2023-04-27T08:46:45.900Z,3.60
2023-04-27T08:49:15.143Z,6.90
2023-04-27T08:51:43.838Z,7.53
2023-04-27T08:54:10.773Z,6.50
2023-04-27T08:56:37.527Z,5.17
2023-04-27T08:59:04.636Z,4.73
2023-04-27T09:01:32.309Z,6.70
2023-04-27T09:04:02.083Z,6.10
2023-04-27T09:06:34.266Z,8.07
2023-04-27T09:09:02.869Z,11.80
2023-04-27T09:11:49.831Z,7.00
2023-04-27T09:14:21.836Z,3.77
2023-04-27T09:16:59.945Z,7.77
2023-04-27T09:19:28.787Z,7.70
2023-04-27T09:22:11.008Z,6.50
2023-04-27T09:24:38.044Z,3.10
2023-04-27T09:27:07.164Z,10.37
2023-04-27T09:32:22.414Z,4.47
2023-04-27T09:35:07.847Z,7.90
2023-04-27T09:37:34.830Z,7.03
2023-04-27T09:40:03.203Z,6.10
2023-04-27T09:42:30.221Z,5.13
2023-04-27T09:44:58.298Z,7.47
2023-04-27T09:47:28.567Z,5.60
2023-04-27T09:49:56.368Z,16.65
2023-04-27T09:52:23.244Z,7.40
2023-04-27T09:54:50.135Z,6.35
2023-04-27T09:57:27.557Z,10.47
2023-04-27T10:00:11.960Z,4.03
2023-04-27T10:02:53.605Z,6.63
2023-04-27T10:06:04.811Z,12.57
2023-04-27T10:08:50.886Z,5.43
2023-04-27T10:11:21.576Z,7.15
2023-04-27T10:13:55.360Z,5.38
2023-04-27T10:16:22.749Z,8.48
2023-04-27T10:18:54.867Z,5.27
2023-04-27T10:21:22.593Z,7.37
2023-04-27T10:23:52.000Z,7.35
2023-04-27T10:26:27.690Z,5.13
2023-04-27T10:29:08.517Z,5.45
2023-04-27T10:31:35.865Z,6.33
2023-04-27T10:34:10.719Z,11.32
2023-04-27T10:36:39.315Z,6.30
2023-04-27T10:39:25.602Z,6.90
2023-04-27T10:41:59.942Z,8.27
2023-04-27T10:44:31.515Z,10.10
2023-04-27T10:47:00.737Z,10.77
2023-04-27T10:49:29.384Z,4.57
2023-04-27T10:51:59.095Z,8.13
2023-04-27T10:54:29.677Z,9.73
2023-04-27T10:57:06.967Z,9.05
2023-04-27T10:59:35.994Z,5.10
2023-04-27T11:05:25.350Z,8.70
2023-04-27T11:07:52.613Z,6.50
2023-04-27T11:10:19.701Z,7.10
2023-04-27T11:12:46.946Z,9.20
2023-04-27T11:15:14.311Z,9.48
2023-04-27T11:17:41.820Z,7.63
2023-04-27T11:20:27.432Z,8.53
2023-04-27T11:22:54.262Z,7.80
2023-04-27T11:25:30.135Z,11.30
2023-04-27T11:27:56.967Z,7.82
2023-04-27T11:30:24.900Z,9.13
2023-04-27T11:32:51.855Z,6.72
2023-04-27T11:35:37.586Z,8.82
2023-04-27T11:38:23.056Z,16.92
2023-04-27T11:41:07.808Z,9.85
2023-04-27T11:43:35.327Z,4.80
2023-04-27T11:46:07.001Z,6.97
2023-04-27T11:48:37.578Z,5.80
2023-04-27T11:51:05.792Z,7.80
2023-04-27T11:53:38.110Z,10.48
2023-04-27T11:56:07.845Z,10.57
2023-04-27T11:58:36.323Z,5.47
2023-04-27T12:01:07.599Z,10.10
2023-04-27T12:03:35.538Z,8.27
2023-04-27T12:08:32.464Z,9.48
2023-04-27T12:10:59.332Z,8.15
2023-04-27T12:13:26.120Z,9.98
2023-04-27T12:15:53.016Z,9.82
2023-04-27T12:18:19.991Z,6.53
2023-04-27T12:20:47.128Z,13.25
2023-04-27T12:23:14.014Z,10.52
2023-04-27T12:28:25.462Z,8.83
2023-04-27T12:30:52.239Z,7.85
2023-04-27T12:33:19.285Z,7.28
2023-04-27T12:35:46.147Z,3.72
2023-04-27T12:38:13.182Z,7.55
2023-04-27T12:40:39.988Z,9.18
2023-04-27T12:43:08.382Z,8.17
2023-04-27T12:45:35.266Z,10.30
2023-04-27T12:48:04.194Z,11.27
2023-04-27T12:50:50.844Z,7.43
2023-04-27T12:53:17.610Z,9.57
2023-04-27T12:55:44.592Z,5.80
2023-04-27T12:58:11.339Z,10.93
2023-04-27T13:00:38.636Z,11.07
2023-04-27T13:03:06.877Z,9.70
2023-04-27T13:05:33.752Z,8.93
2023-04-27T13:08:00.610Z,6.83
2023-04-27T13:10:28.340Z,7.65
2023-04-27T13:12:55.292Z,9.47
2023-04-27T13:15:22.108Z,14.15
2023-04-27T13:17:48.907Z,7.93
2023-04-27T13:20:15.690Z,12.00
2023-04-27T13:22:42.604Z,8.73
2023-04-27T13:25:09.695Z,9.20
2023-04-27T13:27:36.749Z,6.17
2023-04-27T13:30:05.300Z,15.63
2023-04-27T13:32:32.331Z,11.27
2023-04-27T13:34:59.659Z,12.65
2023-04-27T13:37:27.177Z,6.87
2023-04-27T13:39:54.106Z,4.63
2023-04-27T13:42:21.570Z,12.00
2023-04-27T13:44:48.366Z,11.27
2023-04-27T13:47:15.180Z,18.17
2023-04-27T13:50:00.899Z,10.83
2023-04-27T13:52:27.713Z,8.57
2023-04-27T13:54:54.416Z,14.33
2023-04-27T13:57:21.374Z,11.77
2023-04-27T13:59:48.107Z,7.23
2023-04-27T14:02:15.078Z,8.53
2023-04-27T14:04:41.967Z,8.23
2023-04-27T14:07:08.798Z,16.95
2023-04-27T14:09:35.510Z,12.55
2023-04-27T14:12:02.853Z,10.57
2023-04-27T14:14:29.690Z,18.30
2023-04-27T14:16:57.298Z,14.90
2023-04-27T14:19:24.114Z,12.70
2023-04-27T14:21:57.239Z,11.70
2023-04-27T14:24:24.038Z,11.05
2023-04-27T14:26:51.275Z,18.20
2023-04-27T14:29:19.505Z,12.32
2023-04-27T14:31:47.092Z,9.52
2023-04-27T14:34:18.492Z,13.97
2023-04-27T14:37:05.567Z,14.73
2023-04-27T14:39:32.528Z,13.60
2023-04-27T14:41:59.339Z,13.10
2023-04-27T14:47:11.059Z,20.08
2023-04-27T14:49:38.207Z,17.10
2023-04-27T14:52:06.675Z,17.55
2023-04-27T14:54:33.816Z,13.55
2023-04-27T14:57:19.374Z,13.37
2023-04-27T14:59:46.361Z,15.90
2023-04-27T15:02:13.215Z,20.60
2023-04-27T15:04:41.548Z,16.35
2023-04-27T15:07:09.781Z,18.10
2023-04-27T15:09:36.590Z,17.27
2023-04-27T15:12:03.555Z,16.83
2023-04-27T15:14:30.677Z,11.45
2023-04-27T15:16:57.441Z,21.95
2023-04-27T15:19:24.254Z,14.53
2023-04-27T15:21:51.150Z,16.30
2023-04-27T15:24:17.886Z,19.73
2023-04-27T15:29:50.506Z,20.27
2023-04-27T15:32:17.358Z,20.73
2023-04-27T15:34:45.450Z,16.93
2023-04-27T15:37:12.620Z,15.15
2023-04-27T15:39:39.549Z,17.40
2023-04-27T15:44:51.245Z,23.33
2023-04-27T15:47:18.081Z,24.33
2023-04-27T15:49:56.255Z,16.75
2023-04-27T15:52:24.662Z,18.77
2023-04-27T15:54:51.441Z,23.03
2023-04-27T15:57:21.249Z,26.83
2023-04-27T15:59:48.129Z,28.38
2023-04-27T16:02:15.032Z,21.70
2023-04-27T16:04:41.803Z,22.00
2023-04-27T16:07:08.738Z,23.85
2023-04-27T16:09:35.608Z,29.40
2023-04-27T16:12:04.013Z,22.55
2023-04-27T16:14:31.116Z,24.08
2023-04-27T16:17:01.922Z,24.38
2023-04-27T16:19:30.173Z,33.03
2023-04-27T16:21:56.974Z,27.40
2023-04-27T16:24:25.316Z,24.35
2023-04-27T16:27:10.615Z,22.45
2023-04-27T16:29:37.568Z,30.15
2023-04-27T16:32:05.899Z,26.02
2023-04-27T16:34:32.915Z,22.33
2023-04-27T16:36:59.688Z,25.65
2023-04-27T16:39:26.504Z,25.45
2023-04-27T16:41:53.606Z,32.30
2023-04-27T16:47:04.679Z,32.95
2023-04-27T16:49:31.446Z,26.98
2023-04-27T16:51:58.365Z,29.27
2023-04-27T16:54:25.191Z,38.60
2023-04-27T16:56:53.207Z,46.23
2023-04-27T16:59:21.546Z,32.15
2023-04-27T17:01:48.465Z,28.33
2023-04-27T17:04:15.608Z,31.83
2023-04-27T17:06:44.857Z,30.13
2023-04-27T17:09:11.830Z,31.17
2023-04-27T17:11:39.014Z,26.00
2023-04-27T17:14:05.929Z,30.75
2023-04-27T17:16:32.683Z,23.02
2023-04-27T17:18:59.540Z,28.90
2023-04-27T17:21:27.530Z,19.33
2023-04-27T17:23:54.472Z,28.33
2023-04-27T17:26:21.723Z,24.90
2023-04-27T17:28:49.554Z,28.33
2023-04-27T17:31:19.354Z,35.40
2023-04-27T17:34:04.944Z,24.50
2023-04-27T17:36:31.777Z,32.05
2023-04-27T17:38:58.532Z,23.17
2023-04-27T17:41:25.269Z,28.95
2023-04-27T17:43:52.015Z,26.65
2023-04-27T17:46:18.924Z,20.48
2023-04-27T17:48:45.701Z,28.02
2023-04-27T17:51:12.498Z,31.85
2023-04-27T17:53:39.229Z,23.48
2023-04-27T17:56:06.264Z,17.25
2023-04-27T17:58:32.980Z,23.98
2023-04-27T18:01:00.031Z,18.60
2023-04-27T18:03:45.370Z,27.63
2023-04-27T18:06:32.129Z,16.70
2023-04-27T18:08:59.136Z,21.08
2023-04-27T18:11:26.388Z,21.55
2023-04-27T18:13:54.747Z,23.13
2023-04-27T18:16:21.709Z,18.77
2023-04-27T18:18:48.632Z,22.60
2023-04-27T18:21:15.475Z,18.03
2023-04-27T18:24:01.010Z,14.23
2023-04-27T18:26:27.798Z,24.85
2023-04-27T18:28:54.522Z,21.53
2023-04-27T18:31:21.427Z,25.17
2023-04-27T18:33:48.259Z,20.13
2023-04-27T18:36:15.100Z,18.53
2023-04-27T18:38:41.852Z,19.53
2023-04-27T18:41:08.747Z,21.15
2023-04-27T18:43:38.463Z,26.47
2023-04-27T18:46:24.984Z,21.77
2023-04-27T18:48:51.884Z,18.70
2023-04-27T18:51:18.617Z,15.63
2023-04-27T18:53:45.396Z,29.60
2023-04-27T18:56:12.210Z,20.07
2023-04-27T18:58:58.065Z,22.67
2023-04-27T19:01:26.096Z,18.47
2023-04-27T19:03:53.707Z,17.40
2023-04-27T19:06:21.420Z,14.00
2023-04-27T19:08:48.407Z,21.60
2023-04-27T19:11:15.609Z,34.10
2023-04-27T19:13:43.747Z,23.50
2023-04-27T19:16:11.084Z,22.73
2023-04-27T19:18:38.589Z,18.50
2023-04-27T19:21:05.556Z,26.93
2023-04-27T19:23:32.355Z,30.97
2023-04-27T19:26:09.509Z,17.57
2023-04-27T19:28:39.576Z,29.02
2023-04-27T19:31:07.138Z,21.70
2023-04-27T19:33:34.097Z,24.70
2023-04-27T19:36:00.974Z,24.33
2023-04-27T19:38:27.826Z,31.27
2023-04-27T19:40:54.561Z,25.13
2023-04-27T19:43:41.327Z,22.50
2023-04-27T19:46:08.338Z,22.93
2023-04-27T19:48:35.221Z,28.93
2023-04-27T19:51:02.122Z,24.27
2023-04-27T19:53:28.934Z,22.23
2023-04-27T19:55:55.781Z,25.03
2023-04-27T19:58:22.609Z,30.73
2023-04-27T20:00:49.526Z,35.50
2023-04-27T20:03:16.446Z,21.37
2023-04-27T20:05:43.710Z,26.63
2023-04-27T20:08:11.079Z,26.73
2023-04-27T20:10:37.928Z,29.25
2023-04-27T20:13:04.984Z,29.10
2023-04-27T20:15:32.424Z,22.90
2023-04-27T20:17:59.456Z,25.60
2023-04-27T20:20:26.321Z,21.27
2023-04-27T20:22:53.193Z,34.77
2023-04-27T20:25:20.972Z,31.97
2023-04-27T20:27:47.809Z,25.60
2023-04-27T20:30:14.724Z,19.57
2023-04-27T20:32:41.569Z,21.17
2023-04-27T20:35:27.955Z,25.47
2023-04-27T20:37:54.792Z,19.20
2023-04-27T20:40:21.871Z,30.70
2023-04-27T20:42:49.520Z,24.73
2023-04-27T20:45:17.576Z,13.27
2023-04-27T20:48:03.319Z,29.30
2023-04-27T20:50:30.917Z,22.97
2023-04-27T20:52:57.761Z,24.43
2023-04-27T20:55:24.548Z,25.95
2023-04-27T20:57:51.353Z,19.30
2023-04-27T21:00:36.827Z,31.53
2023-04-27T21:03:03.844Z,27.80
2023-04-27T21:05:31.660Z,22.70
2023-04-27T21:07:58.693Z,20.63
2023-04-27T21:10:25.520Z,18.63
2023-04-27T21:12:52.509Z,26.15
2023-04-27T21:15:19.450Z,17.48
2023-04-27T21:17:46.281Z,34.93
2023-04-27T21:20:13.136Z,21.23
2023-04-27T21:22:39.980Z,38.15
2023-04-27T21:25:07.156Z,24.13
2023-04-27T21:27:33.974Z,22.00
2023-04-27T21:30:00.826Z,23.37
2023-04-27T21:32:28.278Z,26.57
2023-04-27T21:34:55.054Z,19.48
2023-04-27T21:37:22.037Z,29.27
2023-04-27T21:39:48.865Z,36.28
2023-04-27T21:42:16.365Z,22.00
2023-04-27T21:44:43.214Z,25.10
2023-04-27T21:47:10.006Z,29.83
2023-04-27T21:49:36.871Z,43.57
2023-04-27T21:52:03.702Z,27.47
2023-04-27T21:54:49.013Z,32.25
2023-04-27T21:57:16.933Z,27.23
2023-04-27T21:59:44.929Z,29.73
2023-04-27T22:02:11.808Z,32.80
2023-04-27T22:04:39.644Z,26.05
2023-04-27T22:07:08.118Z,29.67
2023-04-27T22:09:38.214Z,30.83
2023-04-27T22:12:05.223Z,30.17
2023-04-27T22:14:32.074Z,32.58
2023-04-27T22:17:00.886Z,38.00
2023-04-27T22:19:28.690Z,36.33
2023-04-27T22:21:55.826Z,27.83
2023-04-27T22:24:23.195Z,37.60
2023-04-27T22:26:50.080Z,28.65
2023-04-27T22:29:16.960Z,33.10
2023-04-27T22:31:44.734Z,26.13
2023-04-27T22:34:13.077Z,36.30
2023-04-27T22:36:40.551Z,33.38
2023-04-27T22:39:07.486Z,33.33
2023-04-27T22:41:34.273Z,43.80
2023-04-27T22:44:01.287Z,30.92
2023-04-27T22:46:28.262Z,32.83
2023-04-27T22:48:55.143Z,33.47
2023-04-27T22:51:23.689Z,27.30
2023-04-27T22:53:50.803Z,26.17
2023-04-27T22:56:17.630Z,34.17
2023-04-27T22:58:44.554Z,25.15
2023-04-27T23:01:11.805Z,28.48
2023-04-27T23:03:38.909Z,30.45
2023-04-27T23:06:07.236Z,29.40
2023-04-27T23:08:34.094Z,32.00
2023-04-27T23:11:02.850Z,25.40
2023-04-27T23:13:29.695Z,34.60
2023-04-27T23:15:56.859Z,35.17
2023-04-27T23:18:23.798Z,28.50
2023-04-27T23:20:54.866Z,33.70
2023-04-27T23:23:21.909Z,27.87
2023-04-27T23:25:48.741Z,34.07
2023-04-27T23:28:15.631Z,25.07
2023-04-27T23:31:01.458Z,26.83
2023-04-27T23:33:28.360Z,23.45
2023-04-27T23:35:56.186Z,29.93
2023-04-27T23:38:23.140Z,28.20
2023-04-27T23:40:49.941Z,35.47
2023-04-27T23:43:19.525Z,36.47
2023-04-27T23:45:50.883Z,22.10
2023-04-27T23:48:17.934Z,21.52
2023-04-27T23:50:44.856Z,39.03
2023-04-27T23:53:11.966Z,34.90
2023-04-27T23:55:38.911Z,25.67
2023-04-27T23:58:05.990Z,31.03
